createdAt,value
2022-12-16T00:01:23.120Z,14.67
2022-12-16T00:03:52.960Z,14.80
2022-12-16T00:06:27.592Z,10.20
2022-12-16T00:09:02.378Z,12.20
2022-12-16T00:11:32.710Z,11.63
2022-12-16T00:14:01.213Z,12.43
2022-12-16T00:16:30.641Z,10.83
2022-12-16T00:18:59.080Z,10.80
2022-12-16T00:21:29.936Z,10.50
2022-12-16T00:23:58.945Z,13.03
2022-12-16T00:26:27.543Z,11.90
2022-12-16T00:28:56.054Z,10.90
2022-12-16T00:31:25.258Z,9.10
2022-12-16T00:33:57.952Z,9.20
2022-12-16T00:36:26.509Z,9.37
2022-12-16T00:39:18.241Z,10.53
2022-12-16T00:41:47.739Z,8.57
2022-12-16T00:44:16.298Z,9.90
2022-12-16T00:46:45.515Z,8.90
2022-12-16T00:49:14.214Z,8.37
2022-12-16T00:51:42.948Z,8.37
2022-12-16T00:54:13.745Z,9.33
2022-12-16T00:56:44.193Z,9.23
2022-12-16T00:59:12.725Z,7.80
2022-12-16T01:01:41.608Z,8.37
2022-12-16T01:04:10.238Z,7.00
2022-12-16T01:06:38.986Z,7.50
2022-12-16T01:09:07.548Z,7.17
2022-12-16T01:11:36.960Z,9.63
2022-12-16T01:14:07.067Z,8.57
2022-12-16T01:16:36.626Z,7.67
2022-12-16T01:19:05.507Z,8.20
2022-12-16T01:21:34.022Z,7.60
2022-12-16T01:24:02.613Z,9.03
2022-12-16T01:26:31.914Z,8.60
2022-12-16T01:29:00.612Z,7.47
2022-12-16T01:31:30.845Z,9.03
2022-12-16T01:33:59.634Z,9.27
2022-12-16T01:36:30.835Z,8.83
2022-12-16T01:39:02.370Z,9.50
2022-12-16T01:41:33.075Z,8.07
2022-12-16T01:44:14.738Z,8.07
2022-12-16T01:46:45.377Z,8.43
2022-12-16T01:49:18.810Z,7.67
2022-12-16T01:51:52.414Z,11.67
2022-12-16T01:54:27.202Z,8.37
2022-12-16T01:56:58.294Z,8.23
2022-12-16T01:59:27.670Z,8.20
2022-12-16T02:02:00.098Z,8.23
2022-12-16T02:04:29.038Z,8.57
2022-12-16T02:07:01.043Z,9.40
2022-12-16T02:09:32.360Z,7.47
2022-12-16T02:12:22.258Z,7.20
2022-12-16T02:15:09.295Z,8.70
2022-12-16T02:17:45.968Z,8.50
2022-12-16T02:20:55.287Z,8.17
2022-12-16T02:24:03.549Z,8.40
2022-12-16T02:27:16.874Z,8.40
2022-12-16T02:30:06.960Z,8.50
2022-12-16T02:32:47.963Z,8.80
2022-12-16T02:35:22.136Z,7.07
2022-12-16T02:37:56.348Z,8.50
2022-12-16T02:40:28.665Z,6.87
2022-12-16T02:43:02.439Z,7.00
2022-12-16T02:45:33.050Z,7.30
2022-12-16T02:48:03.719Z,6.77
2022-12-16T02:50:35.992Z,6.30
2022-12-16T02:53:04.870Z,6.23
2022-12-16T02:55:41.355Z,6.27
2022-12-16T02:58:17.133Z,6.90
2022-12-16T03:00:53.831Z,7.50
2022-12-16T03:03:28.318Z,6.77
2022-12-16T03:05:58.810Z,4.87
2022-12-16T03:08:32.280Z,5.53
2022-12-16T03:11:03.615Z,4.80
2022-12-16T03:13:35.985Z,5.23
2022-12-16T03:16:05.533Z,5.30
2022-12-16T03:18:36.089Z,4.97
2022-12-16T03:21:07.393Z,6.50
2022-12-16T03:23:39.682Z,6.83
2022-12-16T03:26:10.776Z,5.07
2022-12-16T03:28:46.086Z,6.40
2022-12-16T03:31:24.210Z,5.10
2022-12-16T03:33:59.217Z,4.97
2022-12-16T03:36:29.190Z,4.37
2022-12-16T03:38:58.214Z,5.00
2022-12-16T03:41:27.786Z,3.90
2022-12-16T03:43:56.822Z,4.60
2022-12-16T03:46:27.642Z,4.03
2022-12-16T03:48:58.171Z,3.80
2022-12-16T03:51:26.820Z,4.03
2022-12-16T03:53:55.732Z,4.27
2022-12-16T03:56:24.243Z,4.67
2022-12-16T03:58:52.715Z,3.70
2022-12-16T04:01:21.550Z,3.43
2022-12-16T04:03:50.344Z,4.33
2022-12-16T04:06:20.193Z,4.57
2022-12-16T04:08:48.965Z,3.40
2022-12-16T04:11:35.144Z,3.67
2022-12-16T04:14:21.193Z,3.50
2022-12-16T04:17:07.868Z,3.50
2022-12-16T04:19:57.072Z,3.67
2022-12-16T04:22:46.958Z,3.33
2022-12-16T04:25:19.519Z,2.73
2022-12-16T04:27:48.171Z,4.07
2022-12-16T04:30:20.463Z,3.30
2022-12-16T04:33:09.671Z,2.60
2022-12-16T04:35:55.741Z,2.70
2022-12-16T04:38:42.970Z,3.30
2022-12-16T04:41:29.198Z,3.17
2022-12-16T04:44:15.405Z,3.77
2022-12-16T04:46:57.772Z,2.77
2022-12-16T04:49:45.459Z,2.53
2022-12-16T04:52:31.132Z,2.37
2022-12-16T04:55:18.538Z,3.10
2022-12-16T04:58:07.237Z,2.80
2022-12-16T05:01:19.166Z,3.10
2022-12-16T05:04:05.518Z,2.80
2022-12-16T05:06:51.681Z,3.30
2022-12-16T05:09:37.711Z,3.37
2022-12-16T05:12:25.502Z,2.50
2022-12-16T05:15:11.513Z,2.57
2022-12-16T05:17:57.637Z,3.30
2022-12-16T05:20:43.384Z,3.00
2022-12-16T05:23:29.595Z,2.43
2022-12-16T05:26:15.386Z,2.30
2022-12-16T05:29:02.444Z,2.80
2022-12-16T05:31:48.611Z,2.70
2022-12-16T05:34:35.127Z,3.60
2022-12-16T05:37:20.959Z,3.33
2022-12-16T05:40:08.839Z,3.40
2022-12-16T05:42:55.353Z,3.10
2022-12-16T05:45:59.077Z,3.63
2022-12-16T05:48:49.591Z,3.23
2022-12-16T05:51:35.688Z,4.90
2022-12-16T05:54:21.975Z,4.27
2022-12-16T05:57:07.936Z,3.73
2022-12-16T05:59:54.186Z,4.10
2022-12-16T06:02:41.619Z,5.77
2022-12-16T06:05:27.678Z,6.60
2022-12-16T06:08:13.416Z,6.60
2022-12-16T06:10:59.336Z,5.77
2022-12-16T06:13:45.220Z,3.70
2022-12-16T06:16:31.293Z,4.80
2022-12-16T06:19:19.287Z,4.03
2022-12-16T06:22:05.278Z,4.87
2022-12-16T06:24:51.560Z,4.00
2022-12-16T06:27:37.452Z,4.10
2022-12-16T06:30:24.025Z,4.10
2022-12-16T06:33:09.620Z,4.50
2022-12-16T06:36:00.989Z,3.90
2022-12-16T06:38:47.294Z,3.57
2022-12-16T06:41:33.615Z,4.30
2022-12-16T06:44:19.539Z,2.63
2022-12-16T06:47:05.416Z,3.27
2022-12-16T06:49:51.906Z,3.23
2022-12-16T06:52:39.831Z,3.80
2022-12-16T06:55:26.726Z,2.73
2022-12-16T06:58:16.531Z,4.40
2022-12-16T07:01:03.204Z,3.50
2022-12-16T07:03:49.377Z,3.60
2022-12-16T07:06:35.219Z,3.47
2022-12-16T07:12:32.880Z,2.60
2022-12-16T07:15:19.274Z,2.80
2022-12-16T07:18:05.527Z,3.20
2022-12-16T07:20:51.732Z,2.93
2022-12-16T07:23:41.142Z,3.20
2022-12-16T07:26:29.015Z,3.60
2022-12-16T07:29:15.263Z,3.70
2022-12-16T07:32:01.783Z,4.30
2022-12-16T07:34:50.232Z,3.97
2022-12-16T07:37:36.582Z,4.30
2022-12-16T07:40:23.232Z,3.77
2022-12-16T07:43:10.731Z,4.80
2022-12-16T07:45:57.152Z,4.17
2022-12-16T07:48:54.650Z,4.80
2022-12-16T07:51:41.749Z,4.60
2022-12-16T07:54:27.780Z,4.30
2022-12-16T07:57:13.570Z,5.20
2022-12-16T08:00:00.390Z,4.70
2022-12-16T08:02:46.775Z,4.70
2022-12-16T08:05:32.610Z,4.97
2022-12-16T08:08:19.030Z,5.10
2022-12-16T08:11:05.228Z,4.60
2022-12-16T08:13:51.116Z,5.77
2022-12-16T08:16:38.443Z,5.07
2022-12-16T08:19:24.806Z,4.93
2022-12-16T08:22:10.681Z,4.47
2022-12-16T08:24:56.988Z,5.20
2022-12-16T08:27:45.252Z,5.77
2022-12-16T08:30:33.204Z,4.90
2022-12-16T08:33:21.074Z,4.83
2022-12-16T08:36:06.683Z,5.90
2022-12-16T08:38:52.977Z,6.10
2022-12-16T08:41:39.195Z,4.90
2022-12-16T08:44:25.466Z,5.30
2022-12-16T08:47:11.475Z,4.70
2022-12-16T08:50:01.705Z,5.17
2022-12-16T08:52:49.429Z,4.27
2022-12-16T08:55:35.718Z,4.10
2022-12-16T08:58:29.756Z,5.20
2022-12-16T09:01:15.781Z,5.03
2022-12-16T09:04:04.505Z,6.13
2022-12-16T09:06:51.671Z,5.30
2022-12-16T09:09:37.914Z,4.67
2022-12-16T09:12:24.179Z,4.77
2022-12-16T09:15:09.870Z,5.27
2022-12-16T09:18:04.383Z,5.07
2022-12-16T09:20:50.403Z,5.70
2022-12-16T09:23:39.303Z,5.80
2022-12-16T09:26:25.631Z,4.87
2022-12-16T09:29:12.123Z,4.37
2022-12-16T09:31:58.443Z,4.20
2022-12-16T09:34:44.559Z,5.67
2022-12-16T09:37:34.555Z,7.40
2022-12-16T09:40:22.595Z,9.07
2022-12-16T09:43:39.759Z,8.10
2022-12-16T09:46:30.213Z,7.50
2022-12-16T09:49:21.794Z,7.60
2022-12-16T09:52:08.155Z,7.73
2022-12-16T09:54:56.184Z,6.30
2022-12-16T09:57:48.091Z,7.90
2022-12-16T10:00:44.899Z,6.77
2022-12-16T10:03:36.142Z,6.93
2022-12-16T10:06:28.617Z,7.00
2022-12-16T10:09:18.418Z,5.40
2022-12-16T10:12:09.624Z,4.87
2022-12-16T10:15:11.235Z,5.67
2022-12-16T10:18:00.091Z,6.10
2022-12-16T10:20:54.345Z,8.30
2022-12-16T10:23:44.858Z,7.47
2022-12-16T10:26:38.562Z,6.77
2022-12-16T10:32:56.566Z,6.30
2022-12-16T10:36:07.717Z,7.10
2022-12-16T10:38:57.650Z,9.93
2022-12-16T10:41:45.378Z,9.80
2022-12-16T10:44:44.506Z,11.67
2022-12-16T10:47:30.550Z,11.33
2022-12-16T10:50:18.495Z,11.13
2022-12-16T10:53:10.072Z,11.10
2022-12-16T10:56:04.539Z,11.67
2022-12-16T10:59:08.040Z,9.07
2022-12-16T11:01:54.235Z,9.23
2022-12-16T11:04:48.751Z,8.77
2022-12-16T11:07:50.482Z,9.40
2022-12-16T11:10:52.933Z,9.13
2022-12-16T11:13:41.994Z,8.23
2022-12-16T11:16:37.032Z,7.60
2022-12-16T11:19:23.605Z,8.17
2022-12-16T11:22:09.948Z,7.23
2022-12-16T11:24:57.351Z,8.13
2022-12-16T11:27:45.052Z,6.20
2022-12-16T11:30:39.867Z,7.07
2022-12-16T11:33:32.975Z,7.87
2022-12-16T11:36:30.239Z,8.33
2022-12-16T11:39:16.433Z,9.50
2022-12-16T11:45:18.726Z,8.07
2022-12-16T11:48:06.570Z,7.97
2022-12-16T11:50:55.515Z,8.03
2022-12-16T11:53:49.654Z,13.10
2022-12-16T11:56:40.933Z,11.10
2022-12-16T11:59:32.402Z,15.63
2022-12-16T12:02:20.227Z,10.17
2022-12-16T12:05:07.708Z,8.57
2022-12-16T12:08:00.664Z,8.50
2022-12-16T12:11:02.818Z,7.70
2022-12-16T12:14:03.046Z,8.30
2022-12-16T12:16:57.565Z,8.17
2022-12-16T12:19:53.607Z,8.00
2022-12-16T12:22:53.642Z,8.17
2022-12-16T12:25:50.700Z,7.07
2022-12-16T12:28:44.570Z,7.53
2022-12-16T12:31:40.241Z,7.00
2022-12-16T12:34:34.836Z,8.30
2022-12-16T12:37:24.559Z,7.70
2022-12-16T12:40:15.232Z,7.80
2022-12-16T12:43:19.520Z,7.93
2022-12-16T12:46:12.331Z,8.00
2022-12-16T12:49:02.602Z,7.60
2022-12-16T12:52:02.158Z,6.40
2022-12-16T12:54:53.936Z,6.87
2022-12-16T12:57:42.820Z,6.27
2022-12-16T13:00:35.510Z,9.10
2022-12-16T13:03:26.142Z,6.53
2022-12-16T13:06:13.124Z,7.80
2022-12-16T13:09:32.857Z,6.10
2022-12-16T13:12:46.017Z,6.67
2022-12-16T13:15:53.943Z,7.20
2022-12-16T13:18:46.375Z,8.07
2022-12-16T13:22:06.182Z,7.97
2022-12-16T13:24:55.457Z,7.57
2022-12-16T13:27:47.130Z,7.27
2022-12-16T13:30:39.870Z,8.93
2022-12-16T13:33:39.157Z,9.00
2022-12-16T13:36:40.524Z,8.90
2022-12-16T13:39:40.392Z,8.50
2022-12-16T13:43:06.652Z,9.20
2022-12-16T13:45:56.410Z,7.53
2022-12-16T13:48:59.823Z,8.60
2022-12-16T13:52:24.929Z,7.70
2022-12-16T13:55:32.421Z,7.37
2022-12-16T13:58:22.672Z,7.53
2022-12-16T14:01:21.819Z,8.43
2022-12-16T14:04:09.855Z,8.20
2022-12-16T14:06:59.244Z,8.30
2022-12-16T14:09:58.802Z,8.73
2022-12-16T14:13:00.103Z,9.50
2022-12-16T14:15:50.014Z,9.60
2022-12-16T14:18:46.055Z,8.83
2022-12-16T14:21:37.661Z,10.20
2022-12-16T14:24:26.870Z,10.70
2022-12-16T14:27:14.296Z,10.10
2022-12-16T14:30:01.823Z,9.90
2022-12-16T14:32:50.354Z,9.77
2022-12-16T14:35:39.615Z,10.20
2022-12-16T14:38:49.848Z,11.67
2022-12-16T14:41:39.496Z,9.70
2022-12-16T14:44:35.140Z,10.17
2022-12-16T14:50:40.619Z,12.97
2022-12-16T14:53:37.426Z,12.03
2022-12-16T14:56:34.550Z,12.60
2022-12-16T14:59:33.640Z,11.90
2022-12-16T15:02:33.187Z,11.63
2022-12-16T15:05:16.366Z,11.13
2022-12-16T15:08:15.365Z,13.10
2022-12-16T15:11:01.280Z,14.60
2022-12-16T15:13:47.490Z,15.27
2022-12-16T15:16:37.332Z,23.53
2022-12-16T15:19:24.192Z,19.20
2022-12-16T15:22:10.317Z,15.50
2022-12-16T15:25:05.514Z,17.07
2022-12-16T15:27:54.386Z,17.60
2022-12-16T15:31:05.118Z,16.63
2022-12-16T15:33:52.551Z,14.10
2022-12-16T15:36:49.420Z,14.60
2022-12-16T15:39:52.373Z,14.13
2022-12-16T15:42:55.911Z,14.03
2022-12-16T15:45:45.732Z,16.63
2022-12-16T15:48:33.386Z,16.90
2022-12-16T15:51:19.259Z,15.63
2022-12-16T15:54:05.790Z,16.57
2022-12-16T15:57:01.248Z,14.30
2022-12-16T15:59:50.253Z,14.83
2022-12-16T16:02:39.144Z,16.17
2022-12-16T16:05:31.037Z,15.57
2022-12-16T16:08:19.635Z,15.73
2022-12-16T16:11:31.166Z,14.60
2022-12-16T16:14:18.841Z,15.70
2022-12-16T16:17:05.947Z,15.77
2022-12-16T16:19:52.214Z,17.20
2022-12-16T16:22:40.380Z,15.70
2022-12-16T16:25:27.681Z,19.13
2022-12-16T16:28:13.654Z,16.70
2022-12-16T16:30:59.684Z,15.83
2022-12-16T16:33:47.122Z,16.97
2022-12-16T16:36:34.205Z,14.50
2022-12-16T16:39:20.569Z,14.90
2022-12-16T16:42:06.597Z,16.90
2022-12-16T16:44:52.308Z,15.70
2022-12-16T16:47:37.979Z,21.00
2022-12-16T16:50:22.132Z,22.80
2022-12-16T16:53:08.789Z,24.83
2022-12-16T16:56:00.802Z,19.70
2022-12-16T16:58:48.422Z,16.80
2022-12-16T17:01:51.219Z,16.10
2022-12-16T17:04:37.224Z,14.93
2022-12-16T17:07:24.576Z,14.80
2022-12-16T17:10:10.219Z,15.10
2022-12-16T17:12:59.960Z,15.23
2022-12-16T17:15:51.565Z,14.70
2022-12-16T17:18:43.807Z,15.97
2022-12-16T17:21:31.518Z,14.87
2022-12-16T17:24:18.832Z,15.87
2022-12-16T17:27:13.313Z,18.37
2022-12-16T17:29:59.032Z,17.40
2022-12-16T17:32:44.660Z,16.27
2022-12-16T17:35:30.611Z,15.40
2022-12-16T17:38:17.497Z,18.17
2022-12-16T17:41:10.551Z,16.67
2022-12-16T17:43:56.702Z,15.57
2022-12-16T17:46:43.592Z,15.47
2022-12-16T17:49:29.924Z,15.43
2022-12-16T17:52:15.888Z,15.37
2022-12-16T17:55:02.035Z,17.20
2022-12-16T17:57:49.144Z,21.00
2022-12-16T18:00:43.787Z,17.43
2022-12-16T18:03:34.314Z,20.00
2022-12-16T18:06:20.907Z,16.07
2022-12-16T18:09:06.995Z,17.00
2022-12-16T18:11:52.883Z,17.90
2022-12-16T18:14:40.386Z,16.70
2022-12-16T18:17:26.279Z,16.00
2022-12-16T18:20:12.503Z,15.70
2022-12-16T18:22:59.263Z,16.70
2022-12-16T18:25:45.304Z,17.03
2022-12-16T18:28:31.565Z,16.60
2022-12-16T18:31:22.899Z,17.17
2022-12-16T18:34:09.227Z,16.87
2022-12-16T18:36:55.031Z,15.07
2022-12-16T18:39:41.496Z,14.20
2022-12-16T18:42:28.157Z,16.10
2022-12-16T18:45:14.420Z,17.10
2022-12-16T18:48:01.640Z,17.20
2022-12-16T18:50:56.500Z,13.73
2022-12-16T18:53:42.304Z,13.93
2022-12-16T18:56:28.458Z,15.60
2022-12-16T18:59:14.490Z,16.47
2022-12-16T19:02:00.708Z,15.13
2022-12-16T19:04:48.357Z,15.30
2022-12-16T19:07:36.556Z,15.70
2022-12-16T19:10:27.085Z,15.80
2022-12-16T19:13:15.079Z,16.70
2022-12-16T19:16:05.027Z,16.07
2022-12-16T19:18:51.624Z,13.77
2022-12-16T19:21:38.853Z,14.87
2022-12-16T19:24:25.457Z,16.33
2022-12-16T19:27:15.328Z,17.70
2022-12-16T19:30:02.051Z,17.80
2022-12-16T19:32:48.177Z,19.00
2022-12-16T19:35:34.409Z,20.87
2022-12-16T19:38:21.762Z,22.30
2022-12-16T19:41:11.418Z,21.33
2022-12-16T19:44:03.467Z,20.40
2022-12-16T19:46:51.711Z,18.60
2022-12-16T19:49:42.450Z,17.43
2022-12-16T19:52:30.147Z,17.77
2022-12-16T19:55:17.916Z,17.77
2022-12-16T19:58:07.068Z,17.10
2022-12-16T20:00:54.917Z,15.10
2022-12-16T20:03:43.061Z,14.67
2022-12-16T20:06:29.500Z,14.13
2022-12-16T20:09:16.127Z,14.67
2022-12-16T20:12:05.261Z,16.47
2022-12-16T20:18:35.884Z,18.30
2022-12-16T20:21:22.450Z,15.80
2022-12-16T20:24:08.118Z,14.67
2022-12-16T20:26:54.121Z,16.70
2022-12-16T20:29:56.392Z,15.93
2022-12-16T20:32:42.788Z,15.07
2022-12-16T20:35:28.816Z,12.83
2022-12-16T20:38:14.775Z,16.17
2022-12-16T20:41:01.142Z,16.00
2022-12-16T20:43:47.205Z,16.03
2022-12-16T20:46:34.576Z,14.80
2022-12-16T20:49:53.428Z,16.50
2022-12-16T20:52:39.370Z,14.50
2022-12-16T20:55:26.800Z,15.83
2022-12-16T20:58:12.702Z,14.93
2022-12-16T21:01:00.883Z,16.47
2022-12-16T21:03:48.056Z,16.33
2022-12-16T21:06:36.467Z,15.60
2022-12-16T21:09:22.461Z,15.40
2022-12-16T21:12:08.962Z,14.23
2022-12-16T21:14:55.316Z,15.20
2022-12-16T21:17:43.009Z,15.10
2022-12-16T21:20:30.450Z,16.37
2022-12-16T21:23:20.217Z,16.17
2022-12-16T21:26:06.549Z,14.57
2022-12-16T21:28:56.223Z,15.57
2022-12-16T21:31:42.503Z,15.23
2022-12-16T21:34:28.918Z,14.13
2022-12-16T21:37:16.490Z,13.73
2022-12-16T21:40:02.632Z,16.47
2022-12-16T21:42:48.974Z,16.67
2022-12-16T21:45:43.063Z,14.37
2022-12-16T21:48:30.167Z,13.80
2022-12-16T21:51:16.055Z,15.00
2022-12-16T21:54:10.816Z,17.47
2022-12-16T21:56:57.853Z,16.37
2022-12-16T21:59:48.173Z,15.87
2022-12-16T22:02:34.158Z,14.80
2022-12-16T22:05:19.473Z,18.83
2022-12-16T22:08:05.688Z,16.00
2022-12-16T22:11:04.409Z,17.37
2022-12-16T22:13:50.388Z,15.90
2022-12-16T22:16:36.756Z,16.13
2022-12-16T22:19:22.928Z,15.37
2022-12-16T22:22:09.150Z,15.97
2022-12-16T22:24:56.824Z,16.97
2022-12-16T22:28:11.203Z,14.70
2022-12-16T22:30:58.022Z,15.23
2022-12-16T22:33:43.684Z,17.90
2022-12-16T22:36:29.836Z,15.23
2022-12-16T22:39:15.733Z,15.30
2022-12-16T22:42:01.502Z,18.43
2022-12-16T22:44:48.770Z,18.30
2022-12-16T22:47:35.054Z,16.50
2022-12-16T22:50:21.051Z,19.00
2022-12-16T22:53:07.354Z,19.20
2022-12-16T22:55:56.195Z,22.10
2022-12-16T22:58:46.280Z,19.30
2022-12-16T23:01:33.561Z,16.17
2022-12-16T23:04:19.883Z,15.77
2022-12-16T23:07:06.080Z,16.40
2022-12-16T23:09:53.299Z,15.83
2022-12-16T23:12:45.554Z,17.23
2022-12-16T23:15:32.551Z,16.50
2022-12-16T23:18:20.215Z,15.73
2022-12-16T23:21:06.226Z,15.63
2022-12-16T23:23:52.656Z,18.07
2022-12-16T23:26:39.508Z,16.50
2022-12-16T23:30:03.165Z,15.83
2022-12-16T23:32:48.666Z,17.23
2022-12-16T23:35:35.822Z,16.90
2022-12-16T23:38:22.566Z,16.17
2022-12-16T23:41:14.085Z,16.90
2022-12-16T23:44:00.021Z,14.90
2022-12-16T23:46:45.847Z,16.80
2022-12-16T23:49:31.928Z,15.00
2022-12-16T23:52:19.242Z,14.87
2022-12-16T23:55:05.348Z,16.50
2022-12-16T23:57:53.608Z,14.20
